Time;durP1;ratioP1;P1;durP2;ratioP2;P2;SDS_P1;SDS_P2;PMS_P1;PMS_P2;Temp;Humidity;BMP_temperature;BMP_pressure;BME280_temperature;BME280_humidity;BME280_pressure;Samples;Min_cycle;Max_cycle;Signal;HPM_P1;HPM_P2
2021/08/27 00:01:35;;;;;;;0.40;0.40;;;13.90;99.90;;;;;;5052614;28;20176;-68
2021/08/27 00:04:00;;;;;;;0.30;0.17;;;14.00;99.90;;;;;;5052526;28;20192;-68
2021/08/27 00:06:27;;;;;;;0.40;0.20;;;13.90;99.90;;;;;;5055640;28;20191;-69
2021/08/27 00:08:52;;;;;;;1.25;0.85;;;13.90;99.90;;;;;;5056802;28;20577;-68
2021/08/27 00:11:18;;;;;;;0.40;0.20;;;13.90;99.90;;;;;;5057010;28;20231;-68
2021/08/27 00:13:44;;;;;;;0.70;0.40;;;14.00;99.90;;;;;;5056966;28;20308;-68
2021/08/27 00:16:10;;;;;;;0.50;0.50;;;14.10;99.90;;;;;;5056756;28;20226;-68
2021/08/27 00:18:35;;;;;;;0.33;0.20;;;14.10;99.90;;;;;;5056670;28;20214;-68
2021/08/27 00:21:01;;;;;;;0.40;0.20;;;14.00;99.90;;;;;;5056921;28;20247;-68
2021/08/27 00:23:26;;;;;;;0.40;0.20;;;14.00;99.90;;;;;;5055811;28;20215;-68
2021/08/27 00:25:52;;;;;;;0.40;0.20;;;13.80;99.90;;;;;;5056897;28;20629;-68
2021/08/27 00:28:18;;;;;;;0.40;0.20;;;13.70;99.90;;;;;;5056564;28;20228;-68
2021/08/27 00:30:44;;;;;;;0.30;0.20;;;13.70;99.90;;;;;;5055599;28;20216;-68
2021/08/27 00:33:09;;;;;;;0.40;0.30;;;13.50;99.90;;;;;;5057017;28;20200;-68
2021/08/27 00:35:35;;;;;;;1.13;1.03;;;13.60;99.90;;;;;;5055379;28;20264;-68
2021/08/27 00:38:03;;;;;;;0.80;0.30;;;13.60;99.90;;;;;;5056406;28;20199;-68
2021/08/27 00:40:29;;;;;;;0.57;0.55;;;13.50;99.90;;;;;;5056267;28;20441;-68
2021/08/27 00:42:54;;;;;;;0.60;0.40;;;13.50;99.90;;;;;;5056188;28;20185;-68
2021/08/27 00:45:20;;;;;;;7.50;6.97;;;13.40;99.90;;;;;;5056259;28;20219;-68
2021/08/27 00:47:46;;;;;;;0.67;0.53;;;13.30;99.90;;;;;;5056247;28;20185;-68
2021/08/27 00:50:11;;;;;;;0.40;0.20;;;13.30;99.90;;;;;;5056077;28;20435;-68
2021/08/27 00:52:41;;;;;;;0.93;0.83;;;13.40;99.90;;;;;;5055195;28;20637;-68
2021/08/27 00:55:07;;;;;;;0.52;0.38;;;13.30;99.90;;;;;;5056360;28;20506;-68
2021/08/27 00:57:33;;;;;;;1.67;0.82;;;13.20;99.90;;;;;;5056124;28;20622;-68
2021/08/27 00:59:59;;;;;;;0.40;0.20;;;13.30;99.90;;;;;;5056145;28;20231;-68
2021/08/27 01:02:25;;;;;;;0.30;0.20;;;13.30;99.90;;;;;;5056186;28;20431;-68
2021/08/27 01:04:54;;;;;;;0.30;0.20;;;13.40;99.90;;;;;;5055885;28;20181;-68
2021/08/27 01:07:24;;;;;;;0.52;0.43;;;13.40;99.90;;;;;;5055646;28;20604;-68
2021/08/27 01:10:16;;;;;;;0.73;0.60;;;13.20;99.90;;;;;;5055492;28;20217;-68
2021/08/27 01:13:11;;;;;;;0.40;0.20;;;13.20;99.90;;;;;;5055770;28;20215;-68
2021/08/27 01:16:01;;;;;;;0.30;0.20;;;13.30;99.90;;;;;;5055794;28;20179;-68
2021/08/27 01:18:39;;;;;;;1.20;0.50;;;13.30;99.90;;;;;;5055551;28;20177;-68
2021/08/27 01:21:28;;;;;;;0.30;0.20;;;13.30;99.90;;;;;;5055627;28;20212;-68
2021/08/27 01:23:57;;;;;;;2.05;1.63;;;13.40;99.90;;;;;;5056842;28;20267;-68
2021/08/27 01:26:26;;;;;;;0.30;0.20;;;13.40;99.90;;;;;;5056884;28;20234;-68
2021/08/27 01:28:54;;;;;;;1.55;1.45;;;13.30;99.90;;;;;;5055438;28;20239;-68
2021/08/27 01:31:33;;;;;;;0.90;0.55;;;13.30;99.90;;;;;;5055478;28;20189;-68
2021/08/27 01:34:05;;;;;;;0.30;0.10;;;13.40;99.90;;;;;;5056743;28;20509;-68
2021/08/27 01:36:34;;;;;;;0.90;0.40;;;13.30;99.90;;;;;;5056769;28;20238;-68
2021/08/27 01:39:04;;;;;;;0.40;0.20;;;13.30;99.90;;;;;;5055156;28;20180;-68
2021/08/27 01:41:32;;;;;;;0.40;0.20;;;13.40;99.90;;;;;;5056187;28;20181;-68
2021/08/27 01:44:06;;;;;;;0.30;0.20;;;13.40;99.90;;;;;;5056472;28;20235;-68
2021/08/27 01:46:35;;;;;;;0.30;0.20;;;13.40;99.90;;;;;;5056261;28;20179;-68
2021/08/27 01:49:06;;;;;;;0.30;0.20;;;13.30;99.90;;;;;;5056859;28;20239;-68
2021/08/27 01:51:34;;;;;;;0.30;0.20;;;13.30;99.90;;;;;;5054796;28;20566;-68
2021/08/27 01:54:01;;;;;;;0.40;0.20;;;13.30;99.90;;;;;;5054900;28;20177;-69
2021/08/27 01:56:28;;;;;;;1.90;0.68;;;13.30;99.90;;;;;;5054684;28;20204;-69
2021/08/27 01:58:57;;;;;;;0.30;0.20;;;13.30;99.90;;;;;;5054376;28;20208;-69
2021/08/27 02:01:24;;;;;;;0.57;0.57;;;13.30;99.90;;;;;;5053681;28;20180;-69
2021/08/27 02:03:52;;;;;;;0.45;0.28;;;13.40;99.90;;;;;;5054706;28;20173;-69
2021/08/27 02:06:19;;;;;;;2.35;0.85;;;13.30;99.90;;;;;;5053717;28;20303;-69
2021/08/27 02:08:45;;;;;;;0.85;0.77;;;13.40;99.90;;;;;;5053447;28;20239;-69
2021/08/27 02:11:12;;;;;;;0.73;0.68;;;13.40;99.90;;;;;;5054731;28;20606;-69
2021/08/27 02:13:37;;;;;;;0.40;0.20;;;13.40;99.90;;;;;;5054280;28;20234;-69
2021/08/27 02:16:06;;;;;;;0.93;0.40;;;13.50;99.90;;;;;;5054406;28;20209;-69
2021/08/27 02:18:33;;;;;;;0.40;0.20;;;13.60;99.90;;;;;;5053841;28;20776;-69
2021/08/27 02:21:01;;;;;;;1.65;0.35;;;13.60;99.90;;;;;;5054270;28;20172;-70
2021/08/27 02:23:28;;;;;;;0.90;0.70;;;13.50;99.90;;;;;;5053172;28;20246;-69
2021/08/27 02:25:55;;;;;;;0.50;0.50;;;13.40;99.90;;;;;;5054038;28;20630;-70
2021/08/27 02:28:23;;;;;;;1.38;0.35;;;13.40;99.90;;;;;;5052142;28;20275;-70
2021/08/27 02:30:49;;;;;;;0.40;0.20;;;13.40;99.90;;;;;;5054115;28;20188;-70
2021/08/27 02:33:17;;;;;;;0.40;0.20;;;13.40;99.90;;;;;;5052805;28;20185;-70
2021/08/27 02:35:44;;;;;;;0.63;0.40;;;13.40;99.90;;;;;;5052668;28;20500;-70
2021/08/27 02:38:19;;;;;;;0.30;0.20;;;13.50;99.90;;;;;;5053539;28;20177;-70
2021/08/27 02:40:44;;;;;;;0.40;0.30;;;13.60;99.90;;;;;;5053613;28;20194;-70
2021/08/27 02:43:10;;;;;;;0.30;0.17;;;13.60;99.90;;;;;;5052990;28;20276;-71
2021/08/27 02:45:36;;;;;;;0.30;0.20;;;13.60;99.90;;;;;;5053579;28;20625;-70
2021/08/27 02:48:02;;;;;;;0.30;0.20;;;13.70;99.90;;;;;;5053395;28;20197;-70
2021/08/27 02:50:31;;;;;;;0.30;0.20;;;13.60;99.90;;;;;;5053374;28;20184;-70
2021/08/27 02:53:07;;;;;;;0.32;0.20;;;13.60;99.90;;;;;;5053546;28;20207;-70
2021/08/27 02:55:38;;;;;;;1.52;0.50;;;13.60;99.90;;;;;;5053499;28;20164;-70
2021/08/27 02:58:11;;;;;;;0.40;0.30;;;13.60;99.90;;;;;;5053272;28;20207;-70
2021/08/27 03:01:04;;;;;;;0.40;0.20;;;13.70;99.90;;;;;;5053332;28;20173;-70
2021/08/27 03:03:34;;;;;;;0.30;0.20;;;13.60;99.90;;;;;;5050452;28;20193;-70
2021/08/27 03:06:25;;;;;;;0.30;0.20;;;13.60;99.90;;;;;;5053186;28;20226;-70
2021/08/27 03:09:01;;;;;;;1.05;0.40;;;13.50;99.90;;;;;;5050894;28;20220;-70
2021/08/27 03:11:30;;;;;;;1.52;1.27;;;13.60;99.90;;;;;;5052370;28;20210;-70
2021/08/27 03:14:04;;;;;;;1.15;0.50;;;13.50;99.90;;;;;;5052428;28;20178;-71
2021/08/27 03:16:30;;;;;;;4.72;0.80;;;13.50;99.90;;;;;;5052281;28;20598;-70
2021/08/27 03:19:14;;;;;;;1.90;0.50;;;13.50;99.90;;;;;;5053273;28;20187;-70
2021/08/27 03:21:59;;;;;;;0.30;0.20;;;13.50;99.90;;;;;;5052353;28;20755;-70
2021/08/27 03:24:32;;;;;;;0.93;0.30;;;13.50;99.90;;;;;;5053305;28;20210;-70
2021/08/27 03:27:05;;;;;;;0.40;0.30;;;13.50;99.90;;;;;;5053138;28;20177;-70
2021/08/27 03:29:36;;;;;;;0.30;0.17;;;13.60;99.90;;;;;;5053074;28;20208;-70
2021/08/27 03:32:04;;;;;;;0.40;0.35;;;13.60;99.90;;;;;;5053029;28;20621;-70
2021/08/27 03:34:29;;;;;;;0.32;0.20;;;13.70;99.90;;;;;;5053136;28;20211;-70
2021/08/27 03:36:57;;;;;;;0.40;0.20;;;13.50;99.90;;;;;;5052903;28;20177;-70
2021/08/27 03:39:25;;;;;;;0.30;0.20;;;13.60;99.90;;;;;;5051992;28;20184;-70
2021/08/27 03:41:52;;;;;;;0.30;0.10;;;13.50;99.90;;;;;;5056132;28;20483;-70
2021/08/27 03:44:18;;;;;;;0.68;0.38;;;13.70;99.90;;;;;;5056916;28;20622;-70
2021/08/27 03:46:45;;;;;;;0.50;0.40;;;13.60;99.90;;;;;;5058132;28;20191;-69
2021/08/27 03:49:12;;;;;;;0.40;0.20;;;13.60;99.90;;;;;;5057591;28;20197;-68
2021/08/27 03:51:39;;;;;;;0.90;0.85;;;13.60;99.90;;;;;;5058289;28;20196;-68
2021/08/27 03:54:05;;;;;;;0.40;0.20;;;13.60;99.90;;;;;;5057408;28;20275;-68
2021/08/27 03:56:33;;;;;;;0.30;0.20;;;13.80;99.90;;;;;;5056887;28;20213;-68
2021/08/27 03:58:59;;;;;;;0.85;0.52;;;13.80;99.90;;;;;;5058424;28;20451;-68
2021/08/27 04:01:25;;;;;;;0.40;0.35;;;13.80;99.90;;;;;;5056694;28;20181;-68
2021/08/27 04:03:51;;;;;;;0.87;0.73;;;13.70;99.90;;;;;;5058354;28;20181;-68
2021/08/27 04:06:17;;;;;;;1.03;1.03;;;13.70;99.90;;;;;;5058015;28;20433;-69
2021/08/27 04:08:43;;;;;;;0.57;0.35;;;13.60;99.90;;;;;;5057692;28;20735;-68
2021/08/27 04:11:11;;;;;;;1.27;0.75;;;13.70;99.90;;;;;;5057463;28;20732;-68
2021/08/27 04:13:37;;;;;;;1.70;0.82;;;13.60;99.90;;;;;;5057616;28;20173;-69
2021/08/27 04:16:03;;;;;;;0.40;0.30;;;13.60;99.90;;;;;;5058422;28;20239;-68
2021/08/27 04:18:29;;;;;;;0.30;0.20;;;13.60;99.90;;;;;;5057699;28;20251;-68
2021/08/27 04:20:55;;;;;;;0.77;0.60;;;13.70;99.90;;;;;;5057127;28;20204;-68
2021/08/27 04:23:20;;;;;;;0.50;0.50;;;13.80;99.90;;;;;;5056991;28;20185;-68
2021/08/27 04:25:46;;;;;;;0.30;0.20;;;13.70;99.90;;;;;;5056908;28;20181;-68
2021/08/27 04:28:12;;;;;;;0.30;0.20;;;13.70;99.90;;;;;;5056756;28;20665;-68
2021/08/27 04:30:37;;;;;;;0.30;0.20;;;13.80;99.90;;;;;;5057925;28;20181;-68
2021/08/27 04:33:03;;;;;;;0.30;0.20;;;13.80;99.90;;;;;;5057741;28;20548;-68
2021/08/27 04:35:29;;;;;;;2.43;1.93;;;13.70;99.90;;;;;;5058449;28;20419;-69
2021/08/27 04:37:55;;;;;;;0.30;0.20;;;13.80;99.90;;;;;;5057985;28;20218;-68
2021/08/27 04:40:22;;;;;;;0.30;0.20;;;13.70;99.90;;;;;;5058072;28;20177;-68
2021/08/27 04:42:48;;;;;;;0.40;0.28;;;13.80;99.90;;;;;;5057051;28;20420;-69
2021/08/27 04:45:13;;;;;;;0.30;0.20;;;13.70;99.90;;;;;;5056010;28;20183;-69
2021/08/27 04:47:39;;;;;;;0.40;0.30;;;13.70;99.90;;;;;;5056053;28;20256;-69
2021/08/27 04:50:06;;;;;;;0.50;0.37;;;13.70;99.90;;;;;;5055773;28;20477;-69
2021/08/27 04:52:32;;;;;;;0.57;0.55;;;13.70;99.90;;;;;;5054677;28;20234;-70
2021/08/27 04:54:57;;;;;;;1.70;0.50;;;13.70;99.90;;;;;;5054809;28;20177;-69
2021/08/27 04:57:23;;;;;;;0.50;0.43;;;13.70;99.90;;;;;;5055958;28;20247;-69
2021/08/27 04:59:50;;;;;;;15.25;1.70;;;13.70;99.90;;;;;;5056506;28;20181;-69
2021/08/27 05:02:16;;;;;;;7.63;0.95;;;13.60;99.90;;;;;;5056250;28;20188;-69
2021/08/27 05:04:41;;;;;;;0.50;0.30;;;13.60;99.90;;;;;;5056062;28;20655;-69
2021/08/27 05:07:07;;;;;;;1.63;0.47;;;13.60;99.90;;;;;;5055788;28;20438;-69
2021/08/27 05:09:33;;;;;;;0.60;0.40;;;13.70;99.90;;;;;;5055313;28;20652;-69
2021/08/27 05:11:58;;;;;;;6.27;0.50;;;13.70;99.90;;;;;;5055138;28;20247;-69
2021/08/27 05:14:24;;;;;;;0.60;0.30;;;13.60;99.90;;;;;;5055846;28;20173;-69
2021/08/27 05:16:49;;;;;;;0.30;0.20;;;13.70;99.90;;;;;;5055553;28;20172;-69
2021/08/27 05:19:15;;;;;;;0.30;0.20;;;13.70;99.90;;;;;;5055355;28;20176;-69
2021/08/27 05:21:41;;;;;;;0.40;0.30;;;13.80;99.90;;;;;;5055362;28;20172;-69
2021/08/27 05:24:07;;;;;;;0.30;0.20;;;13.80;99.90;;;;;;5055167;28;20177;-69
2021/08/27 05:26:33;;;;;;;0.63;0.30;;;13.90;99.90;;;;;;5054949;28;20188;-69
2021/08/27 05:28:59;;;;;;;0.30;0.20;;;14.00;99.90;;;;;;5053728;28;20661;-69
2021/08/27 05:31:24;;;;;;;1.10;0.43;;;14.10;99.90;;;;;;5054733;28;20187;-69
2021/08/27 05:33:50;;;;;;;0.40;0.30;;;14.00;99.90;;;;;;5054849;28;20969;-69
2021/08/27 05:36:16;;;;;;;0.40;0.20;;;14.10;99.90;;;;;;5054008;28;20181;-69
2021/08/27 05:38:41;;;;;;;0.40;0.30;;;14.10;99.90;;;;;;5054668;28;20932;-68
2021/08/27 05:41:07;;;;;;;0.40;0.20;;;14.10;99.90;;;;;;5054317;28;20278;-68
2021/08/27 05:43:33;;;;;;;1.37;0.50;;;14.10;99.90;;;;;;5054488;28;20200;-68
2021/08/27 05:45:59;;;;;;;0.55;0.30;;;14.10;99.90;;;;;;5054957;28;20210;-69
2021/08/27 05:48:25;;;;;;;1.43;0.47;;;14.30;99.90;;;;;;5059706;28;20205;-69
2021/08/27 05:50:50;;;;;;;0.40;0.20;;;14.40;99.90;;;;;;5053462;28;20268;-69
2021/08/27 05:53:16;;;;;;;0.33;0.20;;;14.40;99.90;;;;;;5054381;28;20260;-69
2021/08/27 05:55:42;;;;;;;0.50;0.50;;;14.30;99.90;;;;;;5053831;28;20185;-71
2021/08/27 05:58:07;;;;;;;0.70;0.50;;;14.40;99.90;;;;;;5054671;28;20451;-72
2021/08/27 06:00:33;;;;;;;0.50;0.30;;;14.70;99.90;;;;;;5054029;28;20254;-71
2021/08/27 06:02:59;;;;;;;0.40;0.20;;;14.50;99.90;;;;;;5063920;28;20190;-71
2021/08/27 06:05:25;;;;;;;0.37;0.20;;;14.40;99.90;;;;;;5073665;28;20418;-70
2021/08/27 06:07:50;;;;;;;0.40;0.20;;;14.60;99.90;;;;;;5073782;28;20176;-70
2021/08/27 06:10:16;;;;;;;1.33;0.37;;;14.70;99.90;;;;;;5057567;28;20169;-71
2021/08/27 06:12:42;;;;;;;0.40;0.20;;;14.80;99.90;;;;;;5052945;28;20656;-71
2021/08/27 06:15:10;;;;;;;0.40;0.20;;;14.70;99.90;;;;;;5054202;28;20579;-70
2021/08/27 06:17:35;;;;;;;2.15;2.05;;;14.80;99.90;;;;;;5053796;28;20426;-70
2021/08/27 06:20:01;;;;;;;0.30;0.20;;;14.80;99.90;;;;;;5064067;28;20188;-70
2021/08/27 06:22:26;;;;;;;0.40;0.20;;;14.50;99.90;;;;;;5073914;28;20184;-70
2021/08/27 06:24:52;;;;;;;0.40;0.40;;;14.70;99.90;;;;;;5073543;28;20176;-67
2021/08/27 06:27:18;;;;;;;0.40;0.30;;;14.70;99.90;;;;;;5057725;28;20188;-66
2021/08/27 06:29:43;;;;;;;1.57;0.70;;;14.50;99.90;;;;;;5053349;28;20212;-66
2021/08/27 06:32:10;;;;;;;0.40;0.20;;;14.50;99.90;;;;;;5053659;28;20420;-66
2021/08/27 06:34:35;;;;;;;1.80;0.50;;;14.50;99.90;;;;;;5052228;28;20185;-67
2021/08/27 06:37:01;;;;;;;0.60;0.53;;;14.50;99.90;;;;;;5053483;28;20230;-67
2021/08/27 06:39:27;;;;;;;0.40;0.17;;;14.40;99.90;;;;;;5053208;28;20419;-70
2021/08/27 06:41:53;;;;;;;0.40;0.20;;;14.30;99.90;;;;;;5053549;28;20173;-69
2021/08/27 06:44:18;;;;;;;0.40;0.20;;;14.50;99.90;;;;;;5052292;28;20437;-70
2021/08/27 06:46:44;;;;;;;0.30;0.20;;;14.30;99.90;;;;;;5053001;28;20177;-69
2021/08/27 06:49:11;;;;;;;0.37;0.20;;;14.30;99.90;;;;;;5063164;28;20196;-73
2021/08/27 06:51:40;;;;;;;0.98;0.30;;;14.40;99.90;;;;;;5073354;28;20176;-72
2021/08/27 06:54:06;;;;;;;0.30;0.20;;;14.20;99.90;;;;;;5063126;28;20185;-71
2021/08/27 06:56:31;;;;;;;0.40;0.20;;;14.20;99.90;;;;;;5053228;28;20704;-69
2021/08/27 06:58:57;;;;;;;0.30;0.20;;;14.10;99.90;;;;;;5053082;28;20197;-66
2021/08/27 07:01:23;;;;;;;2.00;1.90;;;14.20;99.90;;;;;;5052795;28;20204;-66
2021/08/27 07:03:48;;;;;;;0.50;0.30;;;14.20;99.90;;;;;;5052990;28;20427;-67
2021/08/27 07:06:14;;;;;;;0.40;0.20;;;14.30;99.90;;;;;;5052311;28;20181;-66
2021/08/27 07:08:40;;;;;;;0.40;0.30;;;14.50;99.90;;;;;;5052895;28;20299;-66
2021/08/27 07:11:06;;;;;;;0.30;0.20;;;14.60;99.90;;;;;;5053413;28;20201;-66
2021/08/27 07:13:31;;;;;;;1.13;1.07;;;14.80;99.90;;;;;;5052989;28;20888;-66
2021/08/27 07:15:57;;;;;;;1.47;0.70;;;14.70;99.90;;;;;;5055748;28;20198;-68
2021/08/27 07:18:24;;;;;;;1.60;1.50;;;14.60;99.90;;;;;;5056185;28;20253;-70
2021/08/27 07:20:50;;;;;;;0.35;0.25;;;14.60;99.90;;;;;;5056093;28;20184;-70
2021/08/27 07:23:16;;;;;;;0.82;0.60;;;14.60;99.90;;;;;;5057352;28;20242;-68
2021/08/27 07:25:43;;;;;;;1.08;0.60;;;14.80;99.90;;;;;;5056548;28;20185;-69
2021/08/27 07:28:09;;;;;;;0.32;0.20;;;14.80;99.90;;;;;;5056506;28;20200;-67
2021/08/27 07:30:36;;;;;;;0.33;0.20;;;15.00;99.90;;;;;;5057193;28;20207;-66
2021/08/27 07:33:02;;;;;;;0.82;0.57;;;15.00;99.90;;;;;;5057022;28;20177;-66
2021/08/27 07:35:27;;;;;;;1.17;0.30;;;15.00;99.90;;;;;;5056762;28;20598;-67
2021/08/27 07:37:53;;;;;;;1.00;0.90;;;15.00;99.90;;;;;;5055344;28;20892;-67
2021/08/27 07:40:18;;;;;;;0.40;0.30;;;15.00;99.90;;;;;;5056236;28;20217;-66
2021/08/27 07:42:44;;;;;;;0.40;0.20;;;15.00;99.90;;;;;;5056637;28;20199;-65
2021/08/27 07:45:11;;;;;;;0.40;0.20;;;15.00;99.90;;;;;;5056506;28;20219;-65
2021/08/27 07:47:36;;;;;;;0.63;0.63;;;15.20;99.90;;;;;;5056270;28;20192;-65
2021/08/27 07:50:04;;;;;;;1.53;0.50;;;15.00;99.90;;;;;;5056333;28;20287;-65
2021/08/27 07:52:30;;;;;;;0.30;0.10;;;14.80;99.90;;;;;;5056449;28;20264;-66
2021/08/27 07:54:55;;;;;;;0.40;0.20;;;14.70;99.90;;;;;;5073545;28;20259;-66
2021/08/27 07:57:21;;;;;;;0.30;0.20;;;15.00;99.90;;;;;;5076347;28;20195;-67
2021/08/27 07:59:47;;;;;;;0.40;0.20;;;15.30;99.90;;;;;;5074199;28;20188;-68
2021/08/27 08:02:14;;;;;;;0.40;0.30;;;15.20;99.90;;;;;;5056620;28;20584;-65
2021/08/27 08:04:40;;;;;;;0.43;0.35;;;15.20;99.90;;;;;;5056359;28;20260;-65
2021/08/27 08:07:06;;;;;;;0.38;0.20;;;15.20;99.90;;;;;;5056097;28;20181;-67
2021/08/27 08:09:31;;;;;;;0.50;0.40;;;15.10;99.90;;;;;;5056280;28;20216;-65
2021/08/27 08:11:57;;;;;;;0.40;0.20;;;15.20;99.90;;;;;;5056129;28;20173;-66
2021/08/27 08:14:22;;;;;;;0.40;0.20;;;15.30;99.90;;;;;;5056412;28;20216;-66
2021/08/27 08:16:48;;;;;;;6.23;0.50;;;15.30;99.90;;;;;;5055715;28;20513;-68
2021/08/27 08:19:14;;;;;;;0.40;0.20;;;15.20;99.90;;;;;;5056110;28;20181;-68
2021/08/27 08:21:39;;;;;;;0.40;0.20;;;15.30;99.90;;;;;;5056164;28;20185;-67
2021/08/27 08:24:05;;;;;;;0.30;0.10;;;15.60;99.90;;;;;;5056025;28;20176;-67
2021/08/27 08:26:31;;;;;;;0.40;0.20;;;15.60;99.90;;;;;;5055166;28;20193;-66
2021/08/27 08:28:56;;;;;;;0.40;0.20;;;15.80;99.90;;;;;;5055622;28;20462;-66
2021/08/27 08:31:22;;;;;;;0.40;0.30;;;16.00;99.90;;;;;;5056452;28;20431;-66
2021/08/27 08:33:50;;;;;;;0.40;0.20;;;15.90;99.90;;;;;;5055847;28;20192;-67
2021/08/27 08:36:16;;;;;;;0.40;0.20;;;16.10;99.90;;;;;;5055895;28;20233;-67
2021/08/27 08:38:42;;;;;;;0.40;0.20;;;16.30;99.90;;;;;;5055470;28;20463;-66
2021/08/27 08:41:08;;;;;;;0.97;0.43;;;16.30;99.90;;;;;;5055774;28;20492;-66
2021/08/27 08:43:34;;;;;;;0.60;0.53;;;16.40;99.90;;;;;;5055407;28;20423;-67
2021/08/27 08:46:00;;;;;;;0.40;0.30;;;16.70;99.90;;;;;;5055550;28;20188;-67
2021/08/27 08:48:26;;;;;;;0.60;0.40;;;16.90;99.90;;;;;;5055243;28;20209;-68
2021/08/27 08:50:53;;;;;;;0.60;0.40;;;16.80;99.90;;;;;;5055614;28;20435;-67
2021/08/27 08:53:23;;;;;;;0.40;0.20;;;17.00;99.90;;;;;;5059339;28;20439;-69
2021/08/27 08:55:50;;;;;;;0.83;0.77;;;17.00;99.90;;;;;;5075534;28;20763;-66
2021/08/27 08:58:17;;;;;;;0.40;0.20;;;16.60;99.90;;;;;;5060088;28;20835;-66
2021/08/27 09:00:42;;;;;;;0.40;0.27;;;16.30;99.90;;;;;;5055010;28;20431;-66
2021/08/27 09:03:08;;;;;;;0.40;0.20;;;16.30;99.90;;;;;;5055344;28;20900;-65
2021/08/27 09:05:34;;;;;;;0.40;0.20;;;16.30;99.90;;;;;;5055387;28;20633;-67
2021/08/27 09:07:59;;;;;;;1.87;1.77;;;16.20;99.90;;;;;;5055920;28;20177;-67
2021/08/27 09:10:26;;;;;;;0.40;0.20;;;16.30;99.90;;;;;;5055685;28;20187;-67
2021/08/27 09:12:51;;;;;;;0.40;0.30;;;16.50;99.90;;;;;;5055447;28;20223;-66
2021/08/27 09:15:23;;;;;;;0.40;0.20;;;16.80;99.90;;;;;;5055152;28;20423;-68
2021/08/27 09:17:50;;;;;;;1.07;0.97;;;16.90;99.90;;;;;;5054683;28;20180;-66
2021/08/27 09:20:23;;;;;;;0.50;0.40;;;17.00;99.90;;;;;;5054852;28;20419;-66
2021/08/27 09:22:53;;;;;;;0.50;0.37;;;16.90;99.90;;;;;;5054806;28;20419;-66
2021/08/27 09:25:31;;;;;;;0.40;0.20;;;16.70;99.90;;;;;;5054857;28;20419;-67
2021/08/27 09:28:09;;;;;;;0.50;0.30;;;17.20;99.90;;;;;;5054502;28;20423;-67
2021/08/27 09:30:52;;;;;;;0.60;0.53;;;17.60;99.90;;;;;;5054717;28;20942;-67
2021/08/27 09:33:23;;;;;;;0.40;0.20;;;17.80;99.90;;;;;;5054470;28;20415;-67
2021/08/27 09:35:57;;;;;;;0.57;0.50;;;17.60;99.90;;;;;;5055370;28;20427;-68
2021/08/27 09:38:26;;;;;;;0.40;0.20;;;17.00;99.90;;;;;;5053143;28;20422;-67
2021/08/27 09:41:03;;;;;;;0.40;0.20;;;17.20;99.90;;;;;;5054849;28;20507;-67
2021/08/27 09:43:29;;;;;;;0.50;0.30;;;17.00;99.90;;;;;;5054237;28;20746;-67
2021/08/27 09:45:57;;;;;;;0.50;0.30;;;16.90;99.90;;;;;;5054421;28;20419;-68
2021/08/27 09:48:23;;;;;;;0.40;0.10;;;16.70;99.90;;;;;;5053824;28;20205;-67
2021/08/27 09:50:49;;;;;;;0.40;0.20;;;16.80;99.90;;;;;;5054437;28;20528;-66
2021/08/27 09:53:17;;;;;;;0.40;0.20;;;16.90;99.90;;;;;;5057700;28;20465;-66
2021/08/27 09:55:59;;;;;;;0.40;0.20;;;17.20;99.90;;;;;;5074184;28;20414;-67
2021/08/27 09:58:26;;;;;;;0.50;0.30;;;17.40;99.90;;;;;;5073927;28;20823;-67
2021/08/27 10:01:04;;;;;;;0.40;0.20;;;17.20;99.90;;;;;;5062198;28;20442;-67
2021/08/27 10:03:29;;;;;;;1.27;1.17;;;17.30;99.90;;;;;;5052368;28;20433;-67
2021/08/27 10:05:55;;;;;;;2.10;2.00;;;17.40;99.90;;;;;;5054013;28;20514;-67
2021/08/27 10:08:27;;;;;;;0.40;0.20;;;17.60;99.90;;;;;;5054007;28;20262;-67
2021/08/27 10:10:55;;;;;;;1.43;0.90;;;17.90;99.90;;;;;;5054081;28;20561;-67
2021/08/27 10:13:23;;;;;;;0.40;0.20;;;18.00;1.00;;;;;;5052978;28;20510;-67
2021/08/27 10:15:49;;;;;;;0.50;0.30;;;17.60;31.90;;;;;;5053715;28;20429;-67
2021/08/27 10:18:15;;;;;;;0.40;0.20;;;18.10;65.40;;;;;;5053782;28;20438;-67
2021/08/27 10:20:44;;;;;;;0.57;0.27;;;17.80;1.00;;;;;;5053959;28;20427;-67
2021/08/27 10:23:13;;;;;;;0.40;0.20;;;18.00;22.90;;;;;;5053769;28;20176;-67
2021/08/27 10:25:39;;;;;;;0.40;0.10;;;17.90;88.90;;;;;;5050355;28;20494;-67
2021/08/27 10:28:06;;;;;;;0.40;0.20;;;18.00;99.90;;;;;;5033643;28;20424;-67
2021/08/27 10:30:57;;;;;;;0.40;0.17;;;18.10;99.90;;;;;;5034195;28;20880;-68
2021/08/27 10:33:41;;;;;;;0.40;0.17;;;18.20;99.90;;;;;;5033673;28;20424;-68
2021/08/27 10:36:30;;;;;;;0.50;0.30;;;17.70;99.90;;;;;;5035039;28;20919;-66
2021/08/27 10:38:57;;;;;;;0.50;0.40;;;16.70;99.90;;;;;;5033458;28;20448;-65
2021/08/27 10:41:41;;;;;;;0.83;0.30;;;16.00;99.90;;;;;;5033856;28;20442;-65
2021/08/27 10:44:11;;;;;;;0.40;0.20;;;15.60;99.90;;;;;;5033851;28;20424;-65
2021/08/27 10:46:46;;;;;;;0.70;0.50;;;15.70;99.90;;;;;;5033562;28;20439;-65
2021/08/27 10:49:14;;;;;;;0.40;0.20;;;16.10;99.90;;;;;;5032732;28;20520;-65
2021/08/27 10:51:42;;;;;;;0.40;0.20;;;16.40;99.90;;;;;;5033025;28;20448;-66
2021/08/27 10:54:08;;;;;;;0.50;0.20;;;16.90;99.90;;;;;;5053944;28;20499;-65
2021/08/27 10:56:53;;;;;;;0.40;0.17;;;17.00;99.90;;;;;;5073538;28;20976;-65
2021/08/27 10:59:24;;;;;;;0.40;0.20;;;17.20;99.90;;;;;;5072248;28;20450;-65
2021/08/27 11:01:56;;;;;;;0.40;0.20;;;17.30;99.90;;;;;;5062082;28;20461;-66
2021/08/27 11:04:24;;;;;;;0.50;0.30;;;17.50;99.90;;;;;;5044356;28;20423;-68
2021/08/27 11:06:50;;;;;;;0.83;0.83;;;17.40;99.90;;;;;;5051970;28;20430;-68
2021/08/27 11:09:24;;;;;;;0.50;0.30;;;17.20;99.90;;;;;;5053105;28;20939;-67
2021/08/27 11:12:04;;;;;;;4.00;1.00;;;16.80;99.90;;;;;;5032270;28;20181;-65
2021/08/27 11:14:30;;;;;;;0.50;0.23;;;16.70;99.90;;;;;;5033075;28;20427;-65
2021/08/27 11:16:58;;;;;;;0.50;0.40;;;17.00;99.90;;;;;;5043387;28;20427;-64
2021/08/27 11:19:26;;;;;;;0.50;0.30;;;17.10;99.90;;;;;;5052092;28;20563;-64
2021/08/27 11:22:10;;;;;;;2.23;1.37;;;17.20;99.90;;;;;;5052839;28;20434;-65
2021/08/27 11:24:40;;;;;;;0.80;0.50;;;17.60;99.90;;;;;;5053397;28;20806;-67
2021/08/27 11:27:16;;;;;;;0.47;0.27;;;17.50;99.90;;;;;;5036245;28;20432;-67
2021/08/27 11:29:43;;;;;;;0.40;0.20;;;17.50;99.90;;;;;;5032795;28;20802;-67
2021/08/27 11:32:30;;;;;;;0.70;0.50;;;17.80;99.90;;;;;;5032795;28;20511;-67
2021/08/27 11:35:00;;;;;;;0.63;0.40;;;17.40;1.00;;;;;;5033011;28;20424;-66
2021/08/27 11:37:30;;;;;;;0.80;0.50;;;17.20;85.80;;;;;;5052021;28;20494;-66
2021/08/27 11:39:56;;;;;;;0.50;0.30;;;17.30;34.10;;;;;;5052756;28;20493;-67
2021/08/27 11:42:22;;;;;;;0.40;0.10;;;17.30;1.00;;;;;;5052633;28;20423;-67
2021/08/27 11:45:06;;;;;;;0.70;0.30;;;17.30;1.00;;;;;;5052864;28;20713;-67
2021/08/27 11:47:37;;;;;;;0.40;0.20;;;17.30;1.00;;;;;;5052481;28;20518;-66
2021/08/27 11:50:06;;;;;;;0.43;0.23;;;17.70;1.00;;;;;;5052484;28;20474;-68
2021/08/27 11:52:32;;;;;;;0.40;0.20;;;17.70;1.00;;;;;;5051578;28;20485;-68
2021/08/27 11:55:03;;;;;;;0.50;0.30;;;18.10;1.00;;;;;;5070110;28;20621;-67
2021/08/27 11:57:29;;;;;;;0.40;0.20;;;17.70;1.00;;;;;;5068636;28;20196;-67
2021/08/27 12:00:07;;;;;;;0.40;0.20;;;17.80;1.00;;;;;;5049796;28;20431;-67
2021/08/27 12:02:33;;;;;;;0.50;0.30;;;18.10;1.00;;;;;;5052751;28;20287;-69
2021/08/27 12:05:00;;;;;;;0.40;0.10;;;18.00;1.00;;;;;;5054201;28;20978;-69
2021/08/27 12:07:30;;;;;;;0.50;0.47;;;17.80;1.00;;;;;;5054272;28;20592;-69
2021/08/27 12:10:05;;;;;;;0.40;0.23;;;17.90;1.00;;;;;;5053778;28;20466;-67
2021/08/27 12:12:36;;;;;;;0.60;0.47;;;18.30;1.00;;;;;;5054159;28;20484;-69
2021/08/27 12:15:03;;;;;;;0.50;0.20;;;18.30;99.90;;;;;;5053523;28;20431;-68
2021/08/27 12:17:29;;;;;;;0.40;0.20;;;18.80;1.00;;;;;;5054928;28;20423;-66
2021/08/27 12:19:58;;;;;;;0.40;0.20;;;19.30;99.90;;;;;;5054425;28;20434;-66
2021/08/27 12:22:31;;;;;;;0.53;0.40;;;19.00;1.00;;;;;;5051090;28;20251;-66
2021/08/27 12:24:56;;;;;;;0.90;0.40;;;18.70;1.00;;;;;;5045103;28;20446;-67
2021/08/27 12:27:24;;;;;;;0.60;0.30;;;18.60;99.90;;;;;;5046388;28;20428;-67
2021/08/27 12:30:08;;;;;;;0.40;0.20;;;18.40;1.00;;;;;;5046869;28;20262;-68
2021/08/27 12:32:35;;;;;;;0.67;0.20;;;18.10;1.00;;;;;;5046045;28;20893;-69
2021/08/27 12:35:00;;;;;;;0.60;0.40;;;17.80;1.00;;;;;;5043013;28;20928;-69
2021/08/27 12:37:28;;;;;;;0.60;0.50;;;17.50;1.00;;;;;;5045758;28;20423;-67
2021/08/27 12:39:53;;;;;;;0.73;0.47;;;17.40;95.00;;;;;;5047187;28;20173;-68
2021/08/27 12:42:20;;;;;;;0.93;0.70;;;17.60;8.60;;;;;;5044534;28;20572;-68
2021/08/27 12:45:04;;;;;;;0.50;0.30;;;17.40;1.00;;;;;;5045722;28;20439;-68
2021/08/27 12:47:40;;;;;;;0.57;0.30;;;17.20;1.00;;;;;;5044804;28;20432;-67
2021/08/27 12:50:09;;;;;;;0.53;0.50;;;17.20;1.00;;;;;;5045874;28;20790;-67
2021/08/27 12:52:34;;;;;;;0.40;0.20;;;17.10;1.00;;;;;;5055506;28;20759;-71
2021/08/27 12:55:00;;;;;;;0.40;0.20;;;17.20;1.00;;;;;;5072876;28;20425;-70